LFLN/SYT METAR and TAF weather

Enter ICAO airport designator
Station Type Date Time Source
LFLN METAR 2019/12/10 06:00 UTC NOAA

LFLN 100600Z AUTO 23002KT 2500 BR NSC M01/M01 Q1029 NOSIG


Station Type Date Time Source
LFLN Decoded METAR 2019/12/10 06:00 UTC NOAA

Saint-Yan, France (LFLN) 46-25N 004-01E 244M
Dec 10, 2019 - 01:00 AM EST / 2019.12.10 0600 UTC
Wind: from the SW (230 degrees) at 2 MPH (2 KT):0
Visibility: 1 mile(s):0
Weather: mist
Temperature: 30 F (-1 C)
Dew Point: 30 F (-1 C)
Relative Humidity: 100%
Pressure (altimeter): 30.39 in. Hg (1029 hPa)
ob: LFLN 100600Z AUTO 23002KT 2500 BR NSC M01/M01 Q1029 NOSIG
cycle: 6

Station Type Date Time Source
LFLN TAF UTC NOAA

Error!

Example: see airport list